Everton, United Kingdom
Current Conditions -  °F | °C
As of 2:20 PM on Sunday 25 Jan 2015 (Local Time) from EGCN Reporting Station
Few Clouds Few Clouds  
Wind Chill: 50°   Ceiling: Unl
Heat Index: 50°   Visibility: 6mi
Dew Point: 43°   Wind: 17mph
Humidity: 76%   Direction: 230°SW
Pressure: 30.27"   Gusts: NA
Location:  53.4°N, 0.9°W
Report Text: EGCN 251420Z 23015KT 9999 FEW019 10/06 Q1025
Loading
Personal Weather Stations






























Interactive Weather Map New forecast layout! Learn more

10-Day Weather Forecast

Advertisements
Track Severe Weather on mobile